sensor_id;sensor_type;location;lat;lon;timestamp;P1;durP1;ratioP1;P2;durP2;ratioP2
18445;SDS011;9352;50.888;4.466;2023-01-19T00:00:49;23.70;;;12.20;;
18445;SDS011;9352;50.888;4.466;2023-01-19T00:03:18;23.23;;;11.13;;
18445;SDS011;9352;50.888;4.466;2023-01-19T00:05:45;19.67;;;10.83;;
18445;SDS011;9352;50.888;4.466;2023-01-19T00:08:12;20.40;;;11.17;;
18445;SDS011;9352;50.888;4.466;2023-01-19T00:10:40;21.07;;;11.27;;
18445;SDS011;9352;50.888;4.466;2023-01-19T00:13:07;19.73;;;11.00;;
18445;SDS011;9352;50.888;4.466;2023-01-19T00:15:34;20.37;;;10.67;;
18445;SDS011;9352;50.888;4.466;2023-01-19T00:18:01;23.23;;;10.57;;
18445;SDS011;9352;50.888;4.466;2023-01-19T00:20:29;24.13;;;11.73;;
18445;SDS011;9352;50.888;4.466;2023-01-19T00:22:59;22.03;;;11.53;;
18445;SDS011;9352;50.888;4.466;2023-01-19T00:25:27;22.93;;;11.20;;
18445;SDS011;9352;50.888;4.466;2023-01-19T00:27:54;21.43;;;10.87;;
18445;SDS011;9352;50.888;4.466;2023-01-19T00:30:20;26.40;;;11.17;;
18445;SDS011;9352;50.888;4.466;2023-01-19T00:32:47;24.30;;;10.30;;
18445;SDS011;9352;50.888;4.466;2023-01-19T00:35:14;19.40;;;10.70;;
18445;SDS011;9352;50.888;4.466;2023-01-19T00:37:43;17.60;;;10.30;;
18445;SDS011;9352;50.888;4.466;2023-01-19T00:40:10;21.37;;;10.87;;
18445;SDS011;9352;50.888;4.466;2023-01-19T00:42:38;23.67;;;10.57;;
18445;SDS011;9352;50.888;4.466;2023-01-19T00:45:08;20.23;;;10.93;;
18445;SDS011;9352;50.888;4.466;2023-01-19T00:47:36;26.80;;;10.87;;
18445;SDS011;9352;50.888;4.466;2023-01-19T00:50:04;23.60;;;10.60;;
18445;SDS011;9352;50.888;4.466;2023-01-19T00:52:32;22.83;;;10.67;;
18445;SDS011;9352;50.888;4.466;2023-01-19T00:55:00;24.47;;;9.97;;
18445;SDS011;9352;50.888;4.466;2023-01-19T00:57:27;19.53;;;10.37;;
18445;SDS011;9352;50.888;4.466;2023-01-19T00:59:54;21.30;;;10.70;;
18445;SDS011;9352;50.888;4.466;2023-01-19T01:02:21;21.80;;;11.10;;
18445;SDS011;9352;50.888;4.466;2023-01-19T01:04:48;32.57;;;11.67;;
18445;SDS011;9352;50.888;4.466;2023-01-19T01:07:19;23.57;;;10.57;;
18445;SDS011;9352;50.888;4.466;2023-01-19T01:09:46;23.87;;;10.97;;
18445;SDS011;9352;50.888;4.466;2023-01-19T01:12:14;22.00;;;10.10;;
18445;SDS011;9352;50.888;4.466;2023-01-19T01:14:41;20.90;;;10.93;;
18445;SDS011;9352;50.888;4.466;2023-01-19T01:17:08;20.70;;;9.70;;
18445;SDS011;9352;50.888;4.466;2023-01-19T01:19:35;27.70;;;10.60;;
18445;SDS011;9352;50.888;4.466;2023-01-19T01:22:03;23.47;;;11.00;;
18445;SDS011;9352;50.888;4.466;2023-01-19T01:24:29;25.63;;;11.03;;
18445;SDS011;9352;50.888;4.466;2023-01-19T01:26:57;20.63;;;11.20;;
18445;SDS011;9352;50.888;4.466;2023-01-19T01:29:25;20.57;;;11.07;;
18445;SDS011;9352;50.888;4.466;2023-01-19T01:31:52;25.40;;;11.67;;
18445;SDS011;9352;50.888;4.466;2023-01-19T01:34:19;23.00;;;11.23;;
18445;SDS011;9352;50.888;4.466;2023-01-19T01:36:46;30.73;;;12.07;;
18445;SDS011;9352;50.888;4.466;2023-01-19T01:39:12;21.87;;;10.93;;
18445;SDS011;9352;50.888;4.466;2023-01-19T01:41:39;24.00;;;11.87;;
18445;SDS011;9352;50.888;4.466;2023-01-19T01:47:15;25.10;;;11.70;;
18445;SDS011;9352;50.888;4.466;2023-01-19T01:49:45;26.13;;;11.23;;
18445;SDS011;9352;50.888;4.466;2023-01-19T01:52:13;22.77;;;11.93;;
18445;SDS011;9352;50.888;4.466;2023-01-19T01:54:41;21.03;;;11.27;;
18445;SDS011;9352;50.888;4.466;2023-01-19T01:57:09;23.93;;;10.47;;
18445;SDS011;9352;50.888;4.466;2023-01-19T01:59:38;24.43;;;10.83;;
18445;SDS011;9352;50.888;4.466;2023-01-19T02:02:08;27.40;;;10.93;;
18445;SDS011;9352;50.888;4.466;2023-01-19T02:05:11;22.13;;;10.53;;
18445;SDS011;9352;50.888;4.466;2023-01-19T02:07:42;25.70;;;11.13;;
18445;SDS011;9352;50.888;4.466;2023-01-19T02:10:32;23.57;;;10.90;;
18445;SDS011;9352;50.888;4.466;2023-01-19T02:13:17;26.67;;;11.40;;
18445;SDS011;9352;50.888;4.466;2023-01-19T02:15:47;27.60;;;11.70;;
18445;SDS011;9352;50.888;4.466;2023-01-19T02:18:15;20.80;;;10.27;;
18445;SDS011;9352;50.888;4.466;2023-01-19T02:20:46;28.43;;;12.03;;
18445;SDS011;9352;50.888;4.466;2023-01-19T02:23:19;26.40;;;11.33;;
18445;SDS011;9352;50.888;4.466;2023-01-19T02:25:56;29.07;;;10.80;;
18445;SDS011;9352;50.888;4.466;2023-01-19T02:28:24;24.53;;;11.27;;
18445;SDS011;9352;50.888;4.466;2023-01-19T02:30:53;29.53;;;11.47;;
18445;SDS011;9352;50.888;4.466;2023-01-19T02:33:20;23.10;;;11.30;;
18445;SDS011;9352;50.888;4.466;2023-01-19T02:35:47;22.87;;;11.23;;
18445;SDS011;9352;50.888;4.466;2023-01-19T02:38:16;24.00;;;11.20;;
18445;SDS011;9352;50.888;4.466;2023-01-19T02:40:46;23.83;;;10.93;;
18445;SDS011;9352;50.888;4.466;2023-01-19T02:43:14;24.83;;;10.23;;
18445;SDS011;9352;50.888;4.466;2023-01-19T02:45:42;23.13;;;11.73;;
18445;SDS011;9352;50.888;4.466;2023-01-19T02:48:10;25.63;;;11.17;;
18445;SDS011;9352;50.888;4.466;2023-01-19T02:50:38;22.27;;;10.90;;
18445;SDS011;9352;50.888;4.466;2023-01-19T02:53:19;26.47;;;11.23;;
18445;SDS011;9352;50.888;4.466;2023-01-19T02:56:00;23.23;;;10.87;;
18445;SDS011;9352;50.888;4.466;2023-01-19T02:58:39;28.80;;;11.00;;
18445;SDS011;9352;50.888;4.466;2023-01-19T03:01:15;24.23;;;10.87;;
18445;SDS011;9352;50.888;4.466;2023-01-19T03:03:49;24.97;;;10.50;;
18445;SDS011;9352;50.888;4.466;2023-01-19T03:06:24;24.03;;;11.80;;
18445;SDS011;9352;50.888;4.466;2023-01-19T03:09:02;32.80;;;10.70;;
18445;SDS011;9352;50.888;4.466;2023-01-19T03:11:38;27.50;;;10.87;;
18445;SDS011;9352;50.888;4.466;2023-01-19T03:14:11;22.70;;;10.47;;
18445;SDS011;9352;50.888;4.466;2023-01-19T03:16:44;21.20;;;10.87;;
18445;SDS011;9352;50.888;4.466;2023-01-19T03:19:16;27.97;;;10.57;;
18445;SDS011;9352;50.888;4.466;2023-01-19T03:21:47;28.83;;;11.40;;
18445;SDS011;9352;50.888;4.466;2023-01-19T03:24:18;21.63;;;11.03;;
18445;SDS011;9352;50.888;4.466;2023-01-19T03:26:50;30.57;;;11.53;;
18445;SDS011;9352;50.888;4.466;2023-01-19T03:29:21;27.90;;;11.27;;
18445;SDS011;9352;50.888;4.466;2023-01-19T03:31:53;28.87;;;11.53;;
18445;SDS011;9352;50.888;4.466;2023-01-19T03:34:23;30.17;;;12.00;;
18445;SDS011;9352;50.888;4.466;2023-01-19T03:36:52;27.37;;;11.13;;
18445;SDS011;9352;50.888;4.466;2023-01-19T03:39:24;24.60;;;11.20;;
18445;SDS011;9352;50.888;4.466;2023-01-19T03:41:55;22.00;;;11.53;;
18445;SDS011;9352;50.888;4.466;2023-01-19T03:44:24;24.80;;;11.17;;
18445;SDS011;9352;50.888;4.466;2023-01-19T03:46:53;25.23;;;11.10;;
18445;SDS011;9352;50.888;4.466;2023-01-19T03:49:22;29.07;;;11.40;;
18445;SDS011;9352;50.888;4.466;2023-01-19T03:51:49;30.13;;;11.73;;
18445;SDS011;9352;50.888;4.466;2023-01-19T03:54:16;27.73;;;11.83;;
18445;SDS011;9352;50.888;4.466;2023-01-19T03:56:44;26.97;;;12.23;;
18445;SDS011;9352;50.888;4.466;2023-01-19T03:59:12;28.10;;;12.20;;
18445;SDS011;9352;50.888;4.466;2023-01-19T04:01:41;29.50;;;12.93;;
18445;SDS011;9352;50.888;4.466;2023-01-19T04:04:08;33.07;;;13.03;;
18445;SDS011;9352;50.888;4.466;2023-01-19T04:06:35;29.17;;;12.67;;
18445;SDS011;9352;50.888;4.466;2023-01-19T04:09:02;29.20;;;12.63;;
18445;SDS011;9352;50.888;4.466;2023-01-19T04:11:29;31.47;;;12.27;;
18445;SDS011;9352;50.888;4.466;2023-01-19T04:13:55;31.80;;;13.30;;
18445;SDS011;9352;50.888;4.466;2023-01-19T04:16:24;33.40;;;13.13;;
18445;SDS011;9352;50.888;4.466;2023-01-19T04:18:51;35.13;;;13.43;;
18445;SDS011;9352;50.888;4.466;2023-01-19T04:21:17;34.50;;;12.90;;
18445;SDS011;9352;50.888;4.466;2023-01-19T04:23:45;35.47;;;13.43;;
18445;SDS011;9352;50.888;4.466;2023-01-19T04:26:13;33.20;;;13.10;;
18445;SDS011;9352;50.888;4.466;2023-01-19T04:28:41;33.50;;;13.27;;
18445;SDS011;9352;50.888;4.466;2023-01-19T04:31:08;32.23;;;13.73;;
18445;SDS011;9352;50.888;4.466;2023-01-19T04:33:36;34.73;;;13.83;;
18445;SDS011;9352;50.888;4.466;2023-01-19T04:36:03;38.30;;;13.97;;
18445;SDS011;9352;50.888;4.466;2023-01-19T04:38:31;36.43;;;13.97;;
18445;SDS011;9352;50.888;4.466;2023-01-19T04:40:57;39.03;;;14.60;;
18445;SDS011;9352;50.888;4.466;2023-01-19T04:43:24;36.67;;;14.03;;
18445;SDS011;9352;50.888;4.466;2023-01-19T04:45:51;34.37;;;12.90;;
18445;SDS011;9352;50.888;4.466;2023-01-19T04:48:18;35.03;;;14.20;;
18445;SDS011;9352;50.888;4.466;2023-01-19T04:50:47;35.80;;;14.43;;
18445;SDS011;9352;50.888;4.466;2023-01-19T04:53:15;40.37;;;13.90;;
18445;SDS011;9352;50.888;4.466;2023-01-19T04:55:42;40.67;;;14.83;;
18445;SDS011;9352;50.888;4.466;2023-01-19T04:58:10;40.53;;;15.00;;
18445;SDS011;9352;50.888;4.466;2023-01-19T05:00:37;38.97;;;15.67;;
18445;SDS011;9352;50.888;4.466;2023-01-19T05:03:04;45.67;;;15.77;;
18445;SDS011;9352;50.888;4.466;2023-01-19T05:05:31;39.07;;;15.70;;
18445;SDS011;9352;50.888;4.466;2023-01-19T05:07:59;42.47;;;15.97;;
18445;SDS011;9352;50.888;4.466;2023-01-19T05:10:26;39.27;;;15.20;;
18445;SDS011;9352;50.888;4.466;2023-01-19T05:12:53;39.67;;;16.50;;
18445;SDS011;9352;50.888;4.466;2023-01-19T05:15:20;51.70;;;18.23;;
18445;SDS011;9352;50.888;4.466;2023-01-19T05:17:47;43.77;;;17.57;;
18445;SDS011;9352;50.888;4.466;2023-01-19T05:20:14;51.30;;;18.23;;
18445;SDS011;9352;50.888;4.466;2023-01-19T05:22:41;47.07;;;18.10;;
18445;SDS011;9352;50.888;4.466;2023-01-19T05:25:10;41.07;;;17.77;;
18445;SDS011;9352;50.888;4.466;2023-01-19T05:27:37;45.00;;;17.93;;
18445;SDS011;9352;50.888;4.466;2023-01-19T05:30:04;53.77;;;18.10;;
18445;SDS011;9352;50.888;4.466;2023-01-19T05:32:32;38.43;;;16.97;;
18445;SDS011;9352;50.888;4.466;2023-01-19T05:34:58;44.40;;;17.63;;
18445;SDS011;9352;50.888;4.466;2023-01-19T05:37:26;51.27;;;18.73;;
18445;SDS011;9352;50.888;4.466;2023-01-19T05:39:53;47.77;;;17.87;;
18445;SDS011;9352;50.888;4.466;2023-01-19T05:42:21;45.47;;;17.57;;
18445;SDS011;9352;50.888;4.466;2023-01-19T05:44:48;48.07;;;17.97;;
18445;SDS011;9352;50.888;4.466;2023-01-19T05:47:15;45.10;;;17.43;;
18445;SDS011;9352;50.888;4.466;2023-01-19T05:49:42;44.60;;;17.30;;
18445;SDS011;9352;50.888;4.466;2023-01-19T05:52:08;47.10;;;17.43;;
18445;SDS011;9352;50.888;4.466;2023-01-19T05:54:35;45.57;;;16.90;;
18445;SDS011;9352;50.888;4.466;2023-01-19T05:57:04;45.83;;;16.93;;
18445;SDS011;9352;50.888;4.466;2023-01-19T05:59:32;48.20;;;17.67;;
18445;SDS011;9352;50.888;4.466;2023-01-19T06:01:59;42.63;;;16.97;;
18445;SDS011;9352;50.888;4.466;2023-01-19T06:04:26;44.43;;;17.37;;
18445;SDS011;9352;50.888;4.466;2023-01-19T06:06:53;44.70;;;16.27;;
18445;SDS011;9352;50.888;4.466;2023-01-19T06:09:20;49.37;;;17.13;;
18445;SDS011;9352;50.888;4.466;2023-01-19T06:11:47;43.47;;;16.87;;
18445;SDS011;9352;50.888;4.466;2023-01-19T06:14:14;43.50;;;16.37;;
18445;SDS011;9352;50.888;4.466;2023-01-19T06:16:43;48.43;;;17.47;;
18445;SDS011;9352;50.888;4.466;2023-01-19T06:19:10;45.93;;;16.27;;
18445;SDS011;9352;50.888;4.466;2023-01-19T06:21:37;47.63;;;16.63;;
18445;SDS011;9352;50.888;4.466;2023-01-19T06:24:04;44.10;;;15.97;;
18445;SDS011;9352;50.888;4.466;2023-01-19T06:26:32;46.43;;;17.10;;
18445;SDS011;9352;50.888;4.466;2023-01-19T06:28:58;43.33;;;17.07;;
18445;SDS011;9352;50.888;4.466;2023-01-19T06:31:25;41.07;;;16.37;;
18445;SDS011;9352;50.888;4.466;2023-01-19T06:33:53;45.40;;;16.60;;
18445;SDS011;9352;50.888;4.466;2023-01-19T06:36:20;47.23;;;16.97;;
18445;SDS011;9352;50.888;4.466;2023-01-19T06:38:47;38.93;;;15.90;;
18445;SDS011;9352;50.888;4.466;2023-01-19T06:41:14;43.40;;;16.07;;
18445;SDS011;9352;50.888;4.466;2023-01-19T06:43:41;45.43;;;16.83;;
18445;SDS011;9352;50.888;4.466;2023-01-19T06:46:08;46.17;;;16.43;;
18445;SDS011;9352;50.888;4.466;2023-01-19T06:48:35;48.43;;;17.53;;
18445;SDS011;9352;50.888;4.466;2023-01-19T06:51:03;39.83;;;16.60;;
18445;SDS011;9352;50.888;4.466;2023-01-19T06:53:31;42.93;;;16.97;;
18445;SDS011;9352;50.888;4.466;2023-01-19T06:55:58;52.73;;;17.43;;
18445;SDS011;9352;50.888;4.466;2023-01-19T06:58:26;54.50;;;16.03;;
18445;SDS011;9352;50.888;4.466;2023-01-19T07:00:53;48.37;;;16.37;;
18445;SDS011;9352;50.888;4.466;2023-01-19T07:03:20;42.90;;;16.90;;
18445;SDS011;9352;50.888;4.466;2023-01-19T07:05:50;42.67;;;17.23;;
18445;SDS011;9352;50.888;4.466;2023-01-19T07:08:18;42.23;;;16.70;;
18445;SDS011;9352;50.888;4.466;2023-01-19T07:10:45;47.87;;;17.83;;
18445;SDS011;9352;50.888;4.466;2023-01-19T07:13:12;43.00;;;15.27;;
18445;SDS011;9352;50.888;4.466;2023-01-19T07:15:40;51.07;;;16.97;;
18445;SDS011;9352;50.888;4.466;2023-01-19T07:18:06;43.83;;;16.93;;
18445;SDS011;9352;50.888;4.466;2023-01-19T07:20:34;49.00;;;16.57;;
18445;SDS011;9352;50.888;4.466;2023-01-19T07:23:01;35.83;;;15.60;;
18445;SDS011;9352;50.888;4.466;2023-01-19T07:25:30;46.10;;;17.00;;
18445;SDS011;9352;50.888;4.466;2023-01-19T07:27:57;41.97;;;16.30;;
18445;SDS011;9352;50.888;4.466;2023-01-19T07:30:24;52.67;;;17.20;;
18445;SDS011;9352;50.888;4.466;2023-01-19T07:32:53;53.20;;;18.57;;
18445;SDS011;9352;50.888;4.466;2023-01-19T07:35:22;42.20;;;16.00;;
18445;SDS011;9352;50.888;4.466;2023-01-19T07:37:49;46.73;;;16.57;;
18445;SDS011;9352;50.888;4.466;2023-01-19T07:40:16;48.37;;;16.27;;
18445;SDS011;9352;50.888;4.466;2023-01-19T07:42:48;38.90;;;16.40;;
18445;SDS011;9352;50.888;4.466;2023-01-19T07:45:16;45.73;;;17.13;;
18445;SDS011;9352;50.888;4.466;2023-01-19T07:47:44;43.70;;;15.70;;
18445;SDS011;9352;50.888;4.466;2023-01-19T07:50:13;48.57;;;17.40;;
18445;SDS011;9352;50.888;4.466;2023-01-19T07:52:41;50.57;;;17.07;;
18445;SDS011;9352;50.888;4.466;2023-01-19T07:55:08;40.97;;;15.97;;
18445;SDS011;9352;50.888;4.466;2023-01-19T07:57:35;42.17;;;16.50;;
18445;SDS011;9352;50.888;4.466;2023-01-19T08:00:04;48.80;;;15.97;;
18445;SDS011;9352;50.888;4.466;2023-01-19T08:02:32;39.63;;;15.80;;
18445;SDS011;9352;50.888;4.466;2023-01-19T08:05:01;40.03;;;16.07;;
18445;SDS011;9352;50.888;4.466;2023-01-19T08:07:28;48.20;;;17.30;;
18445;SDS011;9352;50.888;4.466;2023-01-19T08:09:54;42.07;;;16.13;;
18445;SDS011;9352;50.888;4.466;2023-01-19T08:12:21;46.43;;;17.53;;
18445;SDS011;9352;50.888;4.466;2023-01-19T08:14:48;50.57;;;16.33;;
18445;SDS011;9352;50.888;4.466;2023-01-19T08:17:16;43.17;;;16.73;;
18445;SDS011;9352;50.888;4.466;2023-01-19T08:19:43;54.43;;;17.30;;
18445;SDS011;9352;50.888;4.466;2023-01-19T08:22:10;39.07;;;15.13;;
18445;SDS011;9352;50.888;4.466;2023-01-19T08:24:37;40.33;;;15.47;;
18445;SDS011;9352;50.888;4.466;2023-01-19T08:27:04;39.63;;;15.50;;
18445;SDS011;9352;50.888;4.466;2023-01-19T08:29:33;38.40;;;16.40;;
18445;SDS011;9352;50.888;4.466;2023-01-19T08:32:01;41.93;;;15.50;;
18445;SDS011;9352;50.888;4.466;2023-01-19T08:34:30;37.53;;;15.83;;
18445;SDS011;9352;50.888;4.466;2023-01-19T08:36:57;48.70;;;16.87;;
18445;SDS011;9352;50.888;4.466;2023-01-19T08:39:24;40.77;;;16.07;;
18445;SDS011;9352;50.888;4.466;2023-01-19T08:41:51;42.93;;;15.97;;
18445;SDS011;9352;50.888;4.466;2023-01-19T08:44:19;38.30;;;15.50;;
18445;SDS011;9352;50.888;4.466;2023-01-19T08:46:45;44.67;;;16.13;;
18445;SDS011;9352;50.888;4.466;2023-01-19T08:49:12;37.67;;;15.73;;
18445;SDS011;9352;50.888;4.466;2023-01-19T08:51:41;43.23;;;15.60;;
18445;SDS011;9352;50.888;4.466;2023-01-19T08:54:10;55.30;;;16.30;;
18445;SDS011;9352;50.888;4.466;2023-01-19T08:56:37;48.90;;;16.50;;
18445;SDS011;9352;50.888;4.466;2023-01-19T08:59:04;47.77;;;15.90;;
18445;SDS011;9352;50.888;4.466;2023-01-19T09:01:30;49.00;;;16.67;;
18445;SDS011;9352;50.888;4.466;2023-01-19T09:03:57;43.90;;;16.87;;
18445;SDS011;9352;50.888;4.466;2023-01-19T09:06:24;41.87;;;16.97;;
18445;SDS011;9352;50.888;4.466;2023-01-19T09:08:53;45.40;;;16.77;;
18445;SDS011;9352;50.888;4.466;2023-01-19T09:11:21;43.67;;;17.67;;
18445;SDS011;9352;50.888;4.466;2023-01-19T09:13:48;47.43;;;16.07;;
18445;SDS011;9352;50.888;4.466;2023-01-19T09:16:15;47.97;;;17.00;;
18445;SDS011;9352;50.888;4.466;2023-01-19T09:18:43;49.80;;;16.33;;
18445;SDS011;9352;50.888;4.466;2023-01-19T09:21:10;44.53;;;17.07;;
18445;SDS011;9352;50.888;4.466;2023-01-19T09:23:37;45.83;;;16.00;;
18445;SDS011;9352;50.888;4.466;2023-01-19T09:26:06;45.57;;;16.37;;
18445;SDS011;9352;50.888;4.466;2023-01-19T09:28:33;50.73;;;16.53;;
18445;SDS011;9352;50.888;4.466;2023-01-19T09:31:03;41.70;;;14.60;;
18445;SDS011;9352;50.888;4.466;2023-01-19T09:33:31;45.60;;;16.70;;
18445;SDS011;9352;50.888;4.466;2023-01-19T09:35:58;51.07;;;15.97;;
18445;SDS011;9352;50.888;4.466;2023-01-19T09:38:26;47.73;;;16.67;;
18445;SDS011;9352;50.888;4.466;2023-01-19T09:40:57;44.97;;;16.33;;
18445;SDS011;9352;50.888;4.466;2023-01-19T09:43:34;40.07;;;16.03;;
18445;SDS011;9352;50.888;4.466;2023-01-19T09:46:04;44.17;;;15.17;;
18445;SDS011;9352;50.888;4.466;2023-01-19T09:48:41;53.00;;;15.70;;
18445;SDS011;9352;50.888;4.466;2023-01-19T09:51:12;45.10;;;16.03;;
18445;SDS011;9352;50.888;4.466;2023-01-19T09:53:55;38.63;;;14.33;;
18445;SDS011;9352;50.888;4.466;2023-01-19T09:56:28;39.87;;;14.60;;
18445;SDS011;9352;50.888;4.466;2023-01-19T09:58:58;45.87;;;13.97;;
18445;SDS011;9352;50.888;4.466;2023-01-19T10:04:24;41.17;;;15.03;;
18445;SDS011;9352;50.888;4.466;2023-01-19T10:06:55;41.50;;;15.07;;
18445;SDS011;9352;50.888;4.466;2023-01-19T10:09:51;49.30;;;14.37;;
18445;SDS011;9352;50.888;4.466;2023-01-19T10:12:32;34.73;;;13.23;;
18445;SDS011;9352;50.888;4.466;2023-01-19T10:15:13;46.33;;;14.77;;
18445;SDS011;9352;50.888;4.466;2023-01-19T10:17:51;40.10;;;13.73;;
18445;SDS011;9352;50.888;4.466;2023-01-19T10:20:27;37.33;;;14.70;;
18445;SDS011;9352;50.888;4.466;2023-01-19T10:22:58;41.47;;;14.33;;
18445;SDS011;9352;50.888;4.466;2023-01-19T10:25:26;36.50;;;14.00;;
18445;SDS011;9352;50.888;4.466;2023-01-19T10:27:53;37.87;;;13.70;;
18445;SDS011;9352;50.888;4.466;2023-01-19T10:30:22;43.17;;;14.77;;
18445;SDS011;9352;50.888;4.466;2023-01-19T10:32:52;53.93;;;14.60;;
18445;SDS011;9352;50.888;4.466;2023-01-19T10:35:20;45.50;;;15.77;;
18445;SDS011;9352;50.888;4.466;2023-01-19T10:37:49;44.43;;;14.57;;
18445;SDS011;9352;50.888;4.466;2023-01-19T10:40:22;45.47;;;15.27;;
18445;SDS011;9352;50.888;4.466;2023-01-19T10:42:57;47.20;;;13.83;;
18445;SDS011;9352;50.888;4.466;2023-01-19T10:45:26;42.60;;;14.20;;
18445;SDS011;9352;50.888;4.466;2023-01-19T10:47:56;44.07;;;14.43;;
18445;SDS011;9352;50.888;4.466;2023-01-19T10:50:26;38.20;;;13.67;;
18445;SDS011;9352;50.888;4.466;2023-01-19T10:52:55;41.87;;;14.33;;
18445;SDS011;9352;50.888;4.466;2023-01-19T10:55:24;41.23;;;14.77;;
18445;SDS011;9352;50.888;4.466;2023-01-19T10:57:53;40.80;;;14.43;;
18445;SDS011;9352;50.888;4.466;2023-01-19T11:00:32;42.03;;;13.93;;
18445;SDS011;9352;50.888;4.466;2023-01-19T11:03:02;40.67;;;14.10;;
18445;SDS011;9352;50.888;4.466;2023-01-19T11:05:30;39.17;;;13.70;;
18445;SDS011;9352;50.888;4.466;2023-01-19T11:07:58;43.63;;;14.13;;
18445;SDS011;9352;50.888;4.466;2023-01-19T11:10:25;38.63;;;14.47;;
18445;SDS011;9352;50.888;4.466;2023-01-19T11:12:54;38.90;;;13.53;;
18445;SDS011;9352;50.888;4.466;2023-01-19T11:15:27;39.17;;;14.07;;
18445;SDS011;9352;50.888;4.466;2023-01-19T11:17:58;41.10;;;13.87;;
18445;SDS011;9352;50.888;4.466;2023-01-19T11:20:27;41.43;;;14.90;;
18445;SDS011;9352;50.888;4.466;2023-01-19T11:23:05;45.90;;;14.50;;
18445;SDS011;9352;50.888;4.466;2023-01-19T11:25:44;42.67;;;14.30;;
18445;SDS011;9352;50.888;4.466;2023-01-19T11:28:15;40.30;;;15.20;;
18445;SDS011;9352;50.888;4.466;2023-01-19T11:30:52;45.30;;;14.30;;
18445;SDS011;9352;50.888;4.466;2023-01-19T11:33:31;46.40;;;14.87;;
18445;SDS011;9352;50.888;4.466;2023-01-19T11:36:04;40.27;;;14.90;;
18445;SDS011;9352;50.888;4.466;2023-01-19T11:38:39;35.47;;;13.37;;
18445;SDS011;9352;50.888;4.466;2023-01-19T11:41:07;36.07;;;13.67;;
18445;SDS011;9352;50.888;4.466;2023-01-19T11:43:43;39.23;;;14.60;;
18445;SDS011;9352;50.888;4.466;2023-01-19T11:46:10;36.10;;;14.33;;
18445;SDS011;9352;50.888;4.466;2023-01-19T11:48:40;36.20;;;14.43;;
18445;SDS011;9352;50.888;4.466;2023-01-19T11:51:11;36.70;;;13.63;;
18445;SDS011;9352;50.888;4.466;2023-01-19T11:53:41;36.33;;;13.53;;
18445;SDS011;9352;50.888;4.466;2023-01-19T11:56:12;36.97;;;13.20;;
18445;SDS011;9352;50.888;4.466;2023-01-19T11:58:40;31.00;;;12.60;;
18445;SDS011;9352;50.888;4.466;2023-01-19T12:01:13;27.30;;;12.80;;
18445;SDS011;9352;50.888;4.466;2023-01-19T12:03:47;33.10;;;13.17;;
18445;SDS011;9352;50.888;4.466;2023-01-19T12:06:21;28.23;;;13.13;;
18445;SDS011;9352;50.888;4.466;2023-01-19T12:08:52;29.42;;;12.90;;
18445;SDS011;9352;50.888;4.466;2023-01-19T12:11:24;38.67;;;12.90;;
18445;SDS011;9352;50.888;4.466;2023-01-19T12:13:55;30.05;;;12.18;;
18445;SDS011;9352;50.888;4.466;2023-01-19T12:16:23;34.25;;;12.88;;
18445;SDS011;9352;50.888;4.466;2023-01-19T12:18:57;32.53;;;12.27;;
18445;SDS011;9352;50.888;4.466;2023-01-19T12:21:26;33.93;;;12.67;;
18445;SDS011;9352;50.888;4.466;2023-01-19T12:23:55;27.67;;;12.52;;
18445;SDS011;9352;50.888;4.466;2023-01-19T12:26:31;27.80;;;12.37;;
18445;SDS011;9352;50.888;4.466;2023-01-19T12:29:06;23.08;;;11.63;;
18445;SDS011;9352;50.888;4.466;2023-01-19T12:31:37;29.15;;;12.55;;
18445;SDS011;9352;50.888;4.466;2023-01-19T12:37:05;30.60;;;12.73;;
18445;SDS011;9352;50.888;4.466;2023-01-19T12:39:52;30.00;;;12.70;;
18445;SDS011;9352;50.888;4.466;2023-01-19T12:42:21;33.20;;;12.77;;
18445;SDS011;9352;50.888;4.466;2023-01-19T12:44:48;34.87;;;12.70;;
18445;SDS011;9352;50.888;4.466;2023-01-19T12:47:29;30.00;;;12.00;;
18445;SDS011;9352;50.888;4.466;2023-01-19T12:49:57;29.97;;;12.77;;
18445;SDS011;9352;50.888;4.466;2023-01-19T12:52:31;28.93;;;11.93;;
18445;SDS011;9352;50.888;4.466;2023-01-19T12:55:00;39.70;;;12.47;;
18445;SDS011;9352;50.888;4.466;2023-01-19T12:57:32;24.33;;;11.70;;
18445;SDS011;9352;50.888;4.466;2023-01-19T13:00:04;32.03;;;12.60;;
18445;SDS011;9352;50.888;4.466;2023-01-19T13:05:23;31.55;;;12.80;;
18445;SDS011;9352;50.888;4.466;2023-01-19T13:08:12;33.97;;;13.10;;
18445;SDS011;9352;50.888;4.466;2023-01-19T13:19:50;38.87;;;12.43;;
18445;SDS011;9352;50.888;4.466;2023-01-19T13:25:23;23.50;;;11.77;;
18445;SDS011;9352;50.888;4.466;2023-01-19T13:27:57;24.13;;;12.07;;
18445;SDS011;9352;50.888;4.466;2023-01-19T13:30:26;29.77;;;12.10;;
18445;SDS011;9352;50.888;4.466;2023-01-19T13:32:54;29.63;;;12.47;;
18445;SDS011;9352;50.888;4.466;2023-01-19T13:35:28;29.30;;;12.17;;
18445;SDS011;9352;50.888;4.466;2023-01-19T13:37:57;24.83;;;12.40;;
18445;SDS011;9352;50.888;4.466;2023-01-19T13:40:26;30.17;;;13.30;;
18445;SDS011;9352;50.888;4.466;2023-01-19T13:43:05;32.03;;;12.27;;
18445;SDS011;9352;50.888;4.466;2023-01-19T13:45:39;29.13;;;11.03;;
18445;SDS011;9352;50.888;4.466;2023-01-19T13:48:12;29.30;;;12.53;;
18445;SDS011;9352;50.888;4.466;2023-01-19T13:50:42;41.20;;;13.37;;
18445;SDS011;9352;50.888;4.466;2023-01-19T13:53:23;32.27;;;11.93;;
18445;SDS011;9352;50.888;4.466;2023-01-19T13:59:05;33.73;;;11.03;;
18445;SDS011;9352;50.888;4.466;2023-01-19T14:01:36;23.83;;;11.43;;
18445;SDS011;9352;50.888;4.466;2023-01-19T14:04:04;27.63;;;10.80;;
18445;SDS011;9352;50.888;4.466;2023-01-19T14:06:35;25.77;;;11.83;;
18445;SDS011;9352;50.888;4.466;2023-01-19T14:09:06;32.33;;;11.43;;
18445;SDS011;9352;50.888;4.466;2023-01-19T14:11:41;29.53;;;11.37;;
18445;SDS011;9352;50.888;4.466;2023-01-19T14:16:59;29.33;;;11.17;;
18445;SDS011;9352;50.888;4.466;2023-01-19T14:19:26;25.53;;;10.97;;
18445;SDS011;9352;50.888;4.466;2023-01-19T14:21:57;29.63;;;11.30;;
18445;SDS011;9352;50.888;4.466;2023-01-19T14:24:27;28.53;;;11.37;;
18445;SDS011;9352;50.888;4.466;2023-01-19T14:27:06;26.80;;;10.80;;
18445;SDS011;9352;50.888;4.466;2023-01-19T14:29:36;23.33;;;10.40;;
18445;SDS011;9352;50.888;4.466;2023-01-19T14:32:11;23.50;;;10.43;;
18445;SDS011;9352;50.888;4.466;2023-01-19T14:34:40;25.70;;;10.93;;
18445;SDS011;9352;50.888;4.466;2023-01-19T14:37:14;29.03;;;10.73;;
18445;SDS011;9352;50.888;4.466;2023-01-19T14:39:45;27.73;;;10.17;;
18445;SDS011;9352;50.888;4.466;2023-01-19T14:42:21;26.40;;;11.00;;
18445;SDS011;9352;50.888;4.466;2023-01-19T14:44:52;21.23;;;10.23;;
18445;SDS011;9352;50.888;4.466;2023-01-19T14:47:23;22.30;;;10.40;;
18445;SDS011;9352;50.888;4.466;2023-01-19T14:50:03;25.13;;;10.07;;
18445;SDS011;9352;50.888;4.466;2023-01-19T14:52:33;26.30;;;9.80;;
18445;SDS011;9352;50.888;4.466;2023-01-19T14:55:06;21.60;;;9.73;;
18445;SDS011;9352;50.888;4.466;2023-01-19T14:57:41;24.37;;;9.83;;
18445;SDS011;9352;50.888;4.466;2023-01-19T15:00:12;21.67;;;9.47;;
18445;SDS011;9352;50.888;4.466;2023-01-19T15:02:41;23.17;;;9.40;;
18445;SDS011;9352;50.888;4.466;2023-01-19T15:05:09;25.97;;;9.77;;
18445;SDS011;9352;50.888;4.466;2023-01-19T15:07:36;23.63;;;9.57;;
18445;SDS011;9352;50.888;4.466;2023-01-19T15:10:08;18.27;;;9.13;;
18445;SDS011;9352;50.888;4.466;2023-01-19T15:12:41;28.10;;;10.40;;
18445;SDS011;9352;50.888;4.466;2023-01-19T15:15:12;22.17;;;10.40;;
18445;SDS011;9352;50.888;4.466;2023-01-19T15:17:40;31.27;;;10.17;;
18445;SDS011;9352;50.888;4.466;2023-01-19T15:20:10;19.37;;;9.87;;